sensor_id;sensor_type;location;lat;lon;timestamp;pressure;altitude;pressure_sealevel;temperature;humidity
44044;BME280;29709;52.396;16.796;2023-11-19T00:00:32;102167.05;;;2.87;84.69
44044;BME280;29709;52.396;16.796;2023-11-19T00:03:45;102162.40;;;2.89;85.10
44044;BME280;29709;52.396;16.796;2023-11-19T00:06:59;102167.12;;;2.85;85.38
44044;BME280;29709;52.396;16.796;2023-11-19T00:10:19;102142.42;;;2.90;84.80
44044;BME280;29709;52.396;16.796;2023-11-19T00:13:33;102139.11;;;2.85;84.70
44044;BME280;29709;52.396;16.796;2023-11-19T00:16:47;102134.19;;;2.76;84.36
44044;BME280;29709;52.396;16.796;2023-11-19T00:20:00;102131.19;;;2.65;84.77
44044;BME280;29709;52.396;16.796;2023-11-19T00:23:13;102130.82;;;2.55;84.44
44044;BME280;29709;52.396;16.796;2023-11-19T00:26:27;102115.92;;;2.46;84.59
44044;BME280;29709;52.396;16.796;2023-11-19T00:29:40;102115.30;;;2.41;84.83
44044;BME280;29709;52.396;16.796;2023-11-19T00:32:54;102117.46;;;2.35;85.14
44044;BME280;29709;52.396;16.796;2023-11-19T00:36:07;102109.24;;;2.36;85.47
44044;BME280;29709;52.396;16.796;2023-11-19T00:39:21;102101.69;;;2.25;85.67
44044;BME280;29709;52.396;16.796;2023-11-19T00:42:36;102082.08;;;2.20;85.53
44044;BME280;29709;52.396;16.796;2023-11-19T00:45:50;102085.50;;;2.24;85.14
44044;BME280;29709;52.396;16.796;2023-11-19T00:49:03;102073.59;;;2.26;85.16
44044;BME280;29709;52.396;16.796;2023-11-19T00:52:17;102058.55;;;2.37;85.17
44044;BME280;29709;52.396;16.796;2023-11-19T00:55:31;102049.31;;;2.41;85.13
44044;BME280;29709;52.396;16.796;2023-11-19T00:58:45;102049.55;;;2.36;85.08
44044;BME280;29709;52.396;16.796;2023-11-19T01:01:58;102040.72;;;2.33;85.20
44044;BME280;29709;52.396;16.796;2023-11-19T01:05:17;102035.48;;;2.29;85.51
44044;BME280;29709;52.396;16.796;2023-11-19T01:08:36;102026.09;;;2.35;85.74
44044;BME280;29709;52.396;16.796;2023-11-19T01:11:50;102011.93;;;2.46;85.41
44044;BME280;29709;52.396;16.796;2023-11-19T01:15:05;102004.48;;;2.49;85.54
44044;BME280;29709;52.396;16.796;2023-11-19T01:18:19;102008.01;;;2.51;85.48
44044;BME280;29709;52.396;16.796;2023-11-19T01:21:32;102012.71;;;2.48;85.49
44044;BME280;29709;52.396;16.796;2023-11-19T01:24:45;102001.86;;;2.48;85.55
44044;BME280;29709;52.396;16.796;2023-11-19T01:27:59;102004.42;;;2.51;85.15
44044;BME280;29709;52.396;16.796;2023-11-19T01:31:15;101995.41;;;2.50;85.01
44044;BME280;29709;52.396;16.796;2023-11-19T01:34:28;102004.21;;;2.38;85.40
44044;BME280;29709;52.396;16.796;2023-11-19T01:37:42;101991.37;;;2.42;85.34
44044;BME280;29709;52.396;16.796;2023-11-19T01:40:58;101975.09;;;2.42;85.11
44044;BME280;29709;52.396;16.796;2023-11-19T01:44:11;101963.37;;;2.41;85.39
44044;BME280;29709;52.396;16.796;2023-11-19T01:47:30;101942.43;;;2.43;85.12
44044;BME280;29709;52.396;16.796;2023-11-19T01:50:43;101928.00;;;2.43;85.11
44044;BME280;29709;52.396;16.796;2023-11-19T01:53:57;101926.25;;;2.42;85.08
44044;BME280;29709;52.396;16.796;2023-11-19T01:57:11;101927.22;;;2.41;85.47
44044;BME280;29709;52.396;16.796;2023-11-19T02:00:25;101928.69;;;2.46;85.50
44044;BME280;29709;52.396;16.796;2023-11-19T02:03:38;101916.87;;;2.47;85.42
44044;BME280;29709;52.396;16.796;2023-11-19T02:06:56;101909.79;;;2.45;84.94
44044;BME280;29709;52.396;16.796;2023-11-19T02:10:11;101909.45;;;2.35;85.49
44044;BME280;29709;52.396;16.796;2023-11-19T02:13:32;101903.92;;;2.37;85.39
44044;BME280;29709;52.396;16.796;2023-11-19T02:16:46;101903.73;;;2.40;85.68
44044;BME280;29709;52.396;16.796;2023-11-19T02:20:00;101894.66;;;2.41;85.87
44044;BME280;29709;52.396;16.796;2023-11-19T02:23:14;101885.55;;;2.42;85.60
44044;BME280;29709;52.396;16.796;2023-11-19T02:29:52;101870.83;;;2.46;85.54
44044;BME280;29709;52.396;16.796;2023-11-19T02:33:06;101873.02;;;2.39;85.46
44044;BME280;29709;52.396;16.796;2023-11-19T02:36:20;101864.98;;;2.38;85.70
44044;BME280;29709;52.396;16.796;2023-11-19T02:39:34;101853.09;;;2.40;85.99
44044;BME280;29709;52.396;16.796;2023-11-19T02:50:06;101834.98;;;2.41;86.04
44044;BME280;29709;52.396;16.796;2023-11-19T02:53:28;101821.47;;;2.39;85.76
44044;BME280;29709;52.396;16.796;2023-11-19T02:56:43;101814.04;;;2.43;86.10
44044;BME280;29709;52.396;16.796;2023-11-19T03:00:01;101816.21;;;2.52;86.22
44044;BME280;29709;52.396;16.796;2023-11-19T03:03:25;101812.43;;;2.54;86.37
44044;BME280;29709;52.396;16.796;2023-11-19T03:06:48;101793.24;;;2.57;85.38
44044;BME280;29709;52.396;16.796;2023-11-19T03:10:04;101764.36;;;2.56;85.55
44044;BME280;29709;52.396;16.796;2023-11-19T03:13:19;101757.09;;;2.57;85.51
44044;BME280;29709;52.396;16.796;2023-11-19T03:16:32;101749.25;;;2.52;85.78
44044;BME280;29709;52.396;16.796;2023-11-19T03:19:46;101743.20;;;2.47;85.78
44044;BME280;29709;52.396;16.796;2023-11-19T03:23:02;101749.61;;;2.46;86.00
44044;BME280;29709;52.396;16.796;2023-11-19T03:26:15;101744.96;;;2.48;86.21
44044;BME280;29709;52.396;16.796;2023-11-19T03:29:28;101726.83;;;2.49;86.24
44044;BME280;29709;52.396;16.796;2023-11-19T03:32:42;101711.63;;;2.46;86.64
44044;BME280;29709;52.396;16.796;2023-11-19T03:35:58;101710.55;;;2.49;86.45
44044;BME280;29709;52.396;16.796;2023-11-19T03:39:11;101691.28;;;2.53;86.16
44044;BME280;29709;52.396;16.796;2023-11-19T03:42:27;101683.05;;;2.55;86.29
44044;BME280;29709;52.396;16.796;2023-11-19T03:45:42;101673.43;;;2.49;86.50
44044;BME280;29709;52.396;16.796;2023-11-19T03:48:55;101678.79;;;2.51;86.47
44044;BME280;29709;52.396;16.796;2023-11-19T03:52:09;101677.52;;;2.56;86.73
44044;BME280;29709;52.396;16.796;2023-11-19T03:55:24;101678.40;;;2.57;86.34
44044;BME280;29709;52.396;16.796;2023-11-19T03:58:38;101664.35;;;2.65;86.82
44044;BME280;29709;52.396;16.796;2023-11-19T04:01:52;101647.66;;;2.71;86.02
44044;BME280;29709;52.396;16.796;2023-11-19T04:05:07;101647.40;;;2.61;86.49
44044;BME280;29709;52.396;16.796;2023-11-19T04:08:20;101640.03;;;2.63;86.06
44044;BME280;29709;52.396;16.796;2023-11-19T04:11:35;101640.11;;;2.76;86.65
44044;BME280;29709;52.396;16.796;2023-11-19T04:18:41;101638.06;;;2.79;86.44
44044;BME280;29709;52.396;16.796;2023-11-19T04:21:55;101629.16;;;2.77;85.80
44044;BME280;29709;52.396;16.796;2023-11-19T04:25:08;101607.53;;;2.76;86.22
44044;BME280;29709;52.396;16.796;2023-11-19T04:28:22;101606.09;;;2.84;86.48
44044;BME280;29709;52.396;16.796;2023-11-19T04:31:36;101606.74;;;2.88;85.84
44044;BME280;29709;52.396;16.796;2023-11-19T04:34:49;101606.66;;;2.75;86.02
44044;BME280;29709;52.396;16.796;2023-11-19T04:38:04;101606.46;;;2.78;86.17
44044;BME280;29709;52.396;16.796;2023-11-19T04:41:18;101609.77;;;2.83;86.25
44044;BME280;29709;52.396;16.796;2023-11-19T04:44:31;101593.06;;;2.89;85.72
44044;BME280;29709;52.396;16.796;2023-11-19T04:47:45;101587.73;;;2.88;85.81
44044;BME280;29709;52.396;16.796;2023-11-19T04:50:58;101585.62;;;2.79;85.50
44044;BME280;29709;52.396;16.796;2023-11-19T04:54:11;101590.10;;;2.66;85.67
44044;BME280;29709;52.396;16.796;2023-11-19T04:57:25;101600.18;;;2.64;86.12
44044;BME280;29709;52.396;16.796;2023-11-19T05:00:38;101592.63;;;2.54;86.09
44044;BME280;29709;52.396;16.796;2023-11-19T05:03:51;101585.15;;;2.58;86.70
44044;BME280;29709;52.396;16.796;2023-11-19T05:07:05;101572.95;;;2.65;86.36
44044;BME280;29709;52.396;16.796;2023-11-19T05:10:19;101566.16;;;2.58;86.90
44044;BME280;29709;52.396;16.796;2023-11-19T05:13:33;101539.88;;;2.58;86.59
44044;BME280;29709;52.396;16.796;2023-11-19T05:16:46;101538.64;;;2.64;87.19
44044;BME280;29709;52.396;16.796;2023-11-19T05:20:00;101536.48;;;2.69;86.36
44044;BME280;29709;52.396;16.796;2023-11-19T05:23:13;101532.41;;;2.76;87.11
44044;BME280;29709;52.396;16.796;2023-11-19T05:26:27;101528.12;;;2.86;86.68
44044;BME280;29709;52.396;16.796;2023-11-19T05:29:40;101524.59;;;2.99;86.22
44044;BME280;29709;52.396;16.796;2023-11-19T05:32:56;101509.16;;;2.99;86.19
44044;BME280;29709;52.396;16.796;2023-11-19T05:36:11;101479.30;;;2.99;85.90
44044;BME280;29709;52.396;16.796;2023-11-19T05:39:27;101471.11;;;2.86;85.77
44044;BME280;29709;52.396;16.796;2023-11-19T05:42:41;101472.37;;;2.81;85.72
44044;BME280;29709;52.396;16.796;2023-11-19T05:45:54;101462.04;;;2.73;86.47
44044;BME280;29709;52.396;16.796;2023-11-19T05:49:11;101465.52;;;2.75;86.95
44044;BME280;29709;52.396;16.796;2023-11-19T05:52:26;101449.73;;;2.68;86.30
44044;BME280;29709;52.396;16.796;2023-11-19T05:55:45;101445.50;;;2.64;87.08
44044;BME280;29709;52.396;16.796;2023-11-19T05:59:08;101447.13;;;2.66;87.50
44044;BME280;29709;52.396;16.796;2023-11-19T06:02:27;101445.39;;;2.65;86.92
44044;BME280;29709;52.396;16.796;2023-11-19T06:05:40;101436.59;;;2.62;86.94
44044;BME280;29709;52.396;16.796;2023-11-19T06:08:53;101430.73;;;2.68;86.99
44044;BME280;29709;52.396;16.796;2023-11-19T06:12:08;101424.34;;;2.69;87.15
44044;BME280;29709;52.396;16.796;2023-11-19T06:15:21;101409.39;;;2.76;87.45
44044;BME280;29709;52.396;16.796;2023-11-19T06:18:36;101412.86;;;2.78;87.39
44044;BME280;29709;52.396;16.796;2023-11-19T06:21:50;101419.91;;;2.80;87.21
44044;BME280;29709;52.396;16.796;2023-11-19T06:25:03;101404.51;;;2.81;87.06
44044;BME280;29709;52.396;16.796;2023-11-19T06:28:20;101404.51;;;2.81;87.13
44044;BME280;29709;52.396;16.796;2023-11-19T06:31:34;101391.84;;;2.81;86.99
44044;BME280;29709;52.396;16.796;2023-11-19T06:34:48;101375.95;;;2.75;87.23
44044;BME280;29709;52.396;16.796;2023-11-19T06:38:03;101365.85;;;2.77;87.64
44044;BME280;29709;52.396;16.796;2023-11-19T06:41:17;101356.86;;;2.89;87.58
44044;BME280;29709;52.396;16.796;2023-11-19T06:44:30;101350.68;;;2.87;87.20
44044;BME280;29709;52.396;16.796;2023-11-19T06:47:45;101334.49;;;2.86;87.20
44044;BME280;29709;52.396;16.796;2023-11-19T06:50:59;101326.87;;;2.78;87.55
44044;BME280;29709;52.396;16.796;2023-11-19T06:54:13;101325.78;;;2.81;87.60
44044;BME280;29709;52.396;16.796;2023-11-19T06:57:29;101324.40;;;2.88;87.22
44044;BME280;29709;52.396;16.796;2023-11-19T07:00:44;101314.51;;;2.87;87.17
44044;BME280;29709;52.396;16.796;2023-11-19T07:04:02;101311.37;;;2.93;87.21
44044;BME280;29709;52.396;16.796;2023-11-19T07:07:22;101309.42;;;2.95;87.85
44044;BME280;29709;52.396;16.796;2023-11-19T07:10:35;101306.82;;;3.06;86.99
44044;BME280;29709;52.396;16.796;2023-11-19T07:13:48;101283.89;;;3.10;86.70
44044;BME280;29709;52.396;16.796;2023-11-19T07:17:03;101276.42;;;3.14;86.77
44044;BME280;29709;52.396;16.796;2023-11-19T07:20:17;101270.00;;;3.15;86.32
44044;BME280;29709;52.396;16.796;2023-11-19T07:23:31;101269.12;;;3.14;86.18
44044;BME280;29709;52.396;16.796;2023-11-19T07:26:48;101269.89;;;3.16;86.40
44044;BME280;29709;52.396;16.796;2023-11-19T07:30:01;101264.12;;;3.21;86.29
44044;BME280;29709;52.396;16.796;2023-11-19T07:33:15;101256.75;;;3.23;85.87
44044;BME280;29709;52.396;16.796;2023-11-19T07:36:28;101249.47;;;3.24;86.03
44044;BME280;29709;52.396;16.796;2023-11-19T07:39:41;101256.29;;;3.29;85.78
44044;BME280;29709;52.396;16.796;2023-11-19T07:42:55;101249.98;;;3.29;85.91
44044;BME280;29709;52.396;16.796;2023-11-19T07:46:12;101244.03;;;3.24;85.44
44044;BME280;29709;52.396;16.796;2023-11-19T07:49:26;101242.38;;;3.21;85.99
44044;BME280;29709;52.396;16.796;2023-11-19T07:52:39;101231.21;;;3.26;86.07
44044;BME280;29709;52.396;16.796;2023-11-19T07:55:53;101230.43;;;3.36;86.28
44044;BME280;29709;52.396;16.796;2023-11-19T07:59:07;101226.57;;;3.52;85.29
44044;BME280;29709;52.396;16.796;2023-11-19T08:02:20;101215.70;;;3.52;85.16
44044;BME280;29709;52.396;16.796;2023-11-19T08:05:36;101198.53;;;3.51;85.52
44044;BME280;29709;52.396;16.796;2023-11-19T08:08:50;101195.25;;;3.59;85.27
44044;BME280;29709;52.396;16.796;2023-11-19T08:12:05;101181.99;;;3.54;85.20
44044;BME280;29709;52.396;16.796;2023-11-19T08:15:20;101178.70;;;3.62;85.42
44044;BME280;29709;52.396;16.796;2023-11-19T08:18:33;101176.23;;;3.59;85.00
44044;BME280;29709;52.396;16.796;2023-11-19T08:21:46;101170.44;;;3.63;85.16
44044;BME280;29709;52.396;16.796;2023-11-19T08:25:00;101168.94;;;3.59;85.39
44044;BME280;29709;52.396;16.796;2023-11-19T08:28:16;101162.59;;;3.71;85.77
44044;BME280;29709;52.396;16.796;2023-11-19T08:31:30;101155.70;;;3.79;85.30
44044;BME280;29709;52.396;16.796;2023-11-19T08:34:44;101145.70;;;3.79;85.40
44044;BME280;29709;52.396;16.796;2023-11-19T08:37:57;101142.23;;;3.77;85.02
44044;BME280;29709;52.396;16.796;2023-11-19T08:41:12;101129.58;;;3.65;85.37
44044;BME280;29709;52.396;16.796;2023-11-19T08:48:11;101124.83;;;3.56;86.52
44044;BME280;29709;52.396;16.796;2023-11-19T08:51:25;101121.75;;;3.60;86.50
44044;BME280;29709;52.396;16.796;2023-11-19T08:54:55;101122.98;;;3.56;86.32
44044;BME280;29709;52.396;16.796;2023-11-19T08:58:09;101124.91;;;3.54;87.06
44044;BME280;29709;52.396;16.796;2023-11-19T09:01:22;101111.25;;;3.56;87.28
44044;BME280;29709;52.396;16.796;2023-11-19T09:04:37;101102.10;;;3.57;86.92
44044;BME280;29709;52.396;16.796;2023-11-19T09:07:50;101100.46;;;3.54;87.17
44044;BME280;29709;52.396;16.796;2023-11-19T09:11:06;101092.30;;;3.54;86.60
44044;BME280;29709;52.396;16.796;2023-11-19T09:14:22;101099.09;;;3.48;86.69
44044;BME280;29709;52.396;16.796;2023-11-19T09:17:39;101087.48;;;3.46;86.55
44044;BME280;29709;52.396;16.796;2023-11-19T09:20:53;101078.91;;;3.40;86.52
44044;BME280;29709;52.396;16.796;2023-11-19T09:24:07;101070.34;;;3.33;86.88
44044;BME280;29709;52.396;16.796;2023-11-19T09:27:21;101070.82;;;3.27;86.52
44044;BME280;29709;52.396;16.796;2023-11-19T09:30:34;101062.68;;;3.27;86.61
44044;BME280;29709;52.396;16.796;2023-11-19T09:33:47;101055.15;;;3.31;86.51
44044;BME280;29709;52.396;16.796;2023-11-19T09:37:01;101051.38;;;3.21;86.33
44044;BME280;29709;52.396;16.796;2023-11-19T09:40:15;101062.85;;;3.13;86.81
44044;BME280;29709;52.396;16.796;2023-11-19T09:43:31;101056.32;;;3.15;86.79
44044;BME280;29709;52.396;16.796;2023-11-19T09:46:44;101063.80;;;3.12;87.02
44044;BME280;29709;52.396;16.796;2023-11-19T09:50:00;101059.83;;;3.05;86.65
44044;BME280;29709;52.396;16.796;2023-11-19T09:53:14;101053.86;;;3.00;87.31
44044;BME280;29709;52.396;16.796;2023-11-19T09:56:29;101052.78;;;3.02;87.63
44044;BME280;29709;52.396;16.796;2023-11-19T09:59:43;101046.81;;;2.97;87.43
44044;BME280;29709;52.396;16.796;2023-11-19T10:02:59;101037.69;;;2.98;87.12
44044;BME280;29709;52.396;16.796;2023-11-19T10:06:13;101032.80;;;3.03;87.06
44044;BME280;29709;52.396;16.796;2023-11-19T10:09:27;101036.70;;;2.99;86.81
44044;BME280;29709;52.396;16.796;2023-11-19T10:12:41;101024.10;;;2.98;86.96
44044;BME280;29709;52.396;16.796;2023-11-19T10:15:55;101027.38;;;2.90;87.35
44044;BME280;29709;52.396;16.796;2023-11-19T10:19:12;101010.65;;;2.97;87.45
44044;BME280;29709;52.396;16.796;2023-11-19T10:22:39;101003.07;;;2.89;87.44
44044;BME280;29709;52.396;16.796;2023-11-19T10:25:53;100991.91;;;2.81;87.76
44044;BME280;29709;52.396;16.796;2023-11-19T10:29:07;100979.98;;;2.83;87.59
44044;BME280;29709;52.396;16.796;2023-11-19T10:32:21;100972.91;;;2.81;87.66
44044;BME280;29709;52.396;16.796;2023-11-19T10:39:05;100972.05;;;2.80;88.77
44044;BME280;29709;52.396;16.796;2023-11-19T10:42:18;100948.03;;;2.87;87.47
44044;BME280;29709;52.396;16.796;2023-11-19T10:45:32;100938.60;;;2.80;88.41
44044;BME280;29709;52.396;16.796;2023-11-19T10:48:49;100939.77;;;2.88;87.81
44044;BME280;29709;52.396;16.796;2023-11-19T10:52:05;100942.37;;;2.90;88.10
44044;BME280;29709;52.396;16.796;2023-11-19T10:55:29;100928.66;;;2.92;87.72
44044;BME280;29709;52.396;16.796;2023-11-19T10:58:44;100919.16;;;2.86;88.17
44044;BME280;29709;52.396;16.796;2023-11-19T11:02:02;100918.30;;;2.85;87.90
44044;BME280;29709;52.396;16.796;2023-11-19T11:05:21;100899.41;;;2.84;88.32
44044;BME280;29709;52.396;16.796;2023-11-19T11:08:36;100888.77;;;2.81;88.19
44044;BME280;29709;52.396;16.796;2023-11-19T11:11:51;100894.60;;;2.87;88.76
44044;BME280;29709;52.396;16.796;2023-11-19T11:15:07;100889.80;;;2.91;88.34
44044;BME280;29709;52.396;16.796;2023-11-19T11:18:24;100880.79;;;2.90;88.34
44044;BME280;29709;52.396;16.796;2023-11-19T11:21:40;100848.21;;;2.90;88.46
44044;BME280;29709;52.396;16.796;2023-11-19T11:32:00;100849.61;;;2.96;88.42
44044;BME280;29709;52.396;16.796;2023-11-19T11:38:36;100849.20;;;2.89;88.58
44044;BME280;29709;52.396;16.796;2023-11-19T11:48:47;100821.74;;;3.05;88.76
44044;BME280;29709;52.396;16.796;2023-11-19T11:52:02;100803.07;;;3.01;88.47
44044;BME280;29709;52.396;16.796;2023-11-19T11:55:16;100807.91;;;3.08;88.70
44044;BME280;29709;52.396;16.796;2023-11-19T11:58:31;100793.10;;;3.12;88.96
44044;BME280;29709;52.396;16.796;2023-11-19T12:05:10;100783.36;;;3.10;88.71
44044;BME280;29709;52.396;16.796;2023-11-19T12:08:28;100788.91;;;3.08;88.62
44044;BME280;29709;52.396;16.796;2023-11-19T12:11:48;100782.48;;;3.09;88.58
44044;BME280;29709;52.396;16.796;2023-11-19T12:15:03;100807.17;;;3.06;89.16
44044;BME280;29709;52.396;16.796;2023-11-19T12:18:19;100783.23;;;3.11;89.08
44044;BME280;29709;52.396;16.796;2023-11-19T12:21:35;100774.59;;;3.06;89.33
44044;BME280;29709;52.396;16.796;2023-11-19T12:24:52;100767.44;;;3.05;89.76
44044;BME280;29709;52.396;16.796;2023-11-19T12:28:12;100766.32;;;3.08;89.38
44044;BME280;29709;52.396;16.796;2023-11-19T12:31:26;100756.08;;;3.11;89.89
44044;BME280;29709;52.396;16.796;2023-11-19T12:34:39;100750.30;;;3.16;89.73
44044;BME280;29709;52.396;16.796;2023-11-19T12:37:53;100752.50;;;3.22;90.12
44044;BME280;29709;52.396;16.796;2023-11-19T12:41:08;100757.07;;;3.33;89.85
44044;BME280;29709;52.396;16.796;2023-11-19T12:44:25;100750.77;;;3.43;89.65
44044;BME280;29709;52.396;16.796;2023-11-19T12:47:39;100749.30;;;3.51;89.88
44044;BME280;29709;52.396;16.796;2023-11-19T12:50:59;100748.82;;;3.57;89.48
44044;BME280;29709;52.396;16.796;2023-11-19T12:54:14;100746.70;;;3.60;89.24
44044;BME280;29709;52.396;16.796;2023-11-19T13:01:02;100731.24;;;3.72;89.04
44044;BME280;29709;52.396;16.796;2023-11-19T13:04:17;100713.94;;;3.73;88.88
44044;BME280;29709;52.396;16.796;2023-11-19T13:07:31;100720.77;;;3.67;88.89
44044;BME280;29709;52.396;16.796;2023-11-19T13:10:51;100721.76;;;3.66;88.83
44044;BME280;29709;52.396;16.796;2023-11-19T13:14:07;100711.62;;;3.68;89.17
44044;BME280;29709;52.396;16.796;2023-11-19T13:17:22;100713.21;;;3.71;88.87
44044;BME280;29709;52.396;16.796;2023-11-19T13:20:35;100700.21;;;3.74;89.21
44044;BME280;29709;52.396;16.796;2023-11-19T13:23:54;100692.56;;;3.80;88.99
44044;BME280;29709;52.396;16.796;2023-11-19T13:27:11;100687.39;;;3.76;89.00
44044;BME280;29709;52.396;16.796;2023-11-19T13:30:25;100682.81;;;3.77;88.79
44044;BME280;29709;52.396;16.796;2023-11-19T13:33:40;100693.43;;;3.80;88.83
44044;BME280;29709;52.396;16.796;2023-11-19T13:36:54;100671.81;;;3.79;89.06
44044;BME280;29709;52.396;16.796;2023-11-19T13:40:08;100666.02;;;3.72;89.17
44044;BME280;29709;52.396;16.796;2023-11-19T13:43:28;100667.86;;;3.71;89.56
44044;BME280;29709;52.396;16.796;2023-11-19T13:46:44;100667.83;;;3.83;90.00
44044;BME280;29709;52.396;16.796;2023-11-19T13:50:03;100666.20;;;3.91;89.10
44044;BME280;29709;52.396;16.796;2023-11-19T13:53:19;100653.73;;;3.89;89.07
44044;BME280;29709;52.396;16.796;2023-11-19T13:56:33;100656.32;;;3.90;89.31
44044;BME280;29709;52.396;16.796;2023-11-19T13:59:47;100661.63;;;3.92;89.83
44044;BME280;29709;52.396;16.796;2023-11-19T14:03:00;100662.21;;;3.95;89.86
44044;BME280;29709;52.396;16.796;2023-11-19T14:06:14;100655.68;;;3.98;89.75
44044;BME280;29709;52.396;16.796;2023-11-19T14:09:27;100652.74;;;3.90;89.43
44044;BME280;29709;52.396;16.796;2023-11-19T14:12:42;100653.09;;;3.96;89.82
44044;BME280;29709;52.396;16.796;2023-11-19T14:15:56;100648.52;;;3.97;89.74
44044;BME280;29709;52.396;16.796;2023-11-19T14:19:09;100639.50;;;3.96;89.47
44044;BME280;29709;52.396;16.796;2023-11-19T14:22:24;100638.61;;;3.96;90.19
44044;BME280;29709;52.396;16.796;2023-11-19T14:25:37;100636.97;;;4.04;89.92
44044;BME280;29709;52.396;16.796;2023-11-19T14:28:51;100627.58;;;4.09;89.85
44044;BME280;29709;52.396;16.796;2023-11-19T14:32:05;100633.47;;;4.14;90.40
44044;BME280;29709;52.396;16.796;2023-11-19T14:35:19;100630.23;;;4.20;89.44
44044;BME280;29709;52.396;16.796;2023-11-19T14:38:33;100628.24;;;4.22;89.41
44044;BME280;29709;52.396;16.796;2023-11-19T14:41:47;100630.37;;;4.18;89.60
44044;BME280;29709;52.396;16.796;2023-11-19T14:45:01;100619.73;;;4.15;90.06
44044;BME280;29709;52.396;16.796;2023-11-19T14:48:14;100619.73;;;4.15;89.49
44044;BME280;29709;52.396;16.796;2023-11-19T14:51:27;100626.16;;;4.14;89.57
44044;BME280;29709;52.396;16.796;2023-11-19T14:54:41;100622.59;;;4.14;89.52
44044;BME280;29709;52.396;16.796;2023-11-19T14:57:55;100619.49;;;4.18;90.00
44044;BME280;29709;52.396;16.796;2023-11-19T15:01:13;100618.09;;;4.24;89.75
44044;BME280;29709;52.396;16.796;2023-11-19T15:04:28;100616.84;;;4.28;90.41
44044;BME280;29709;52.396;16.796;2023-11-19T15:07:42;100613.20;;;4.39;90.29
44044;BME280;29709;52.396;16.796;2023-11-19T15:10:56;100619.55;;;4.49;90.46
44044;BME280;29709;52.396;16.796;2023-11-19T15:14:13;100612.12;;;4.51;89.81
44044;BME280;29709;52.396;16.796;2023-11-19T15:17:31;100615.05;;;4.59;90.03
44044;BME280;29709;52.396;16.796;2023-11-19T15:20:45;100612.03;;;4.62;90.41
44044;BME280;29709;52.396;16.796;2023-11-19T15:24:01;100597.87;;;4.68;90.30
44044;BME280;29709;52.396;16.796;2023-11-19T15:27:20;100605.51;;;4.74;90.43
44044;BME280;29709;52.396;16.796;2023-11-19T15:30:34;100598.24;;;4.84;90.30
44044;BME280;29709;52.396;16.796;2023-11-19T15:33:47;100592.26;;;4.90;89.35
44044;BME280;29709;52.396;16.796;2023-11-19T15:37:01;100604.60;;;4.95;89.98
44044;BME280;29709;52.396;16.796;2023-11-19T15:40:14;100600.73;;;4.97;89.75
44044;BME280;29709;52.396;16.796;2023-11-19T15:43:29;100596.14;;;4.98;90.40
44044;BME280;29709;52.396;16.796;2023-11-19T15:46:42;100602.48;;;5.08;90.49
44044;BME280;29709;52.396;16.796;2023-11-19T15:49:56;100591.77;;;5.16;89.98
44044;BME280;29709;52.396;16.796;2023-11-19T15:53:09;100584.05;;;5.21;89.62
44044;BME280;29709;52.396;16.796;2023-11-19T15:56:22;100591.66;;;5.27;89.18
44044;BME280;29709;52.396;16.796;2023-11-19T15:59:36;100593.37;;;5.28;89.35
44044;BME280;29709;52.396;16.796;2023-11-19T16:02:50;100593.84;;;5.33;89.09
44044;BME280;29709;52.396;16.796;2023-11-19T16:06:04;100589.96;;;5.36;89.32
44044;BME280;29709;52.396;16.796;2023-11-19T16:09:18;100588.96;;;5.37;90.02
44044;BME280;29709;52.396;16.796;2023-11-19T16:12:35;100584.94;;;5.41;89.30
44044;BME280;29709;52.396;16.796;2023-11-19T16:15:49;100587.55;;;5.42;89.25
44044;BME280;29709;52.396;16.796;2023-11-19T16:19:02;100584.53;;;5.45;89.63
44044;BME280;29709;52.396;16.796;2023-11-19T16:22:18;100584.24;;;5.48;89.90
44044;BME280;29709;52.396;16.796;2023-11-19T16:25:32;100587.69;;;5.50;89.55
44044;BME280;29709;52.396;16.796;2023-11-19T16:28:46;100583.84;;;5.53;90.58
44044;BME280;29709;52.396;16.796;2023-11-19T16:31:59;100583.10;;;5.61;91.19
44044;BME280;29709;52.396;16.796;2023-11-19T16:35:13;100579.67;;;5.68;90.95
44044;BME280;29709;52.396;16.796;2023-11-19T16:38:26;100587.15;;;5.76;89.75
44044;BME280;29709;52.396;16.796;2023-11-19T16:41:39;100581.11;;;5.82;90.78
44044;BME280;29709;52.396;16.796;2023-11-19T16:44:53;100583.60;;;5.95;92.37
44044;BME280;29709;52.396;16.796;2023-11-19T16:48:06;100586.19;;;6.06;91.91
44044;BME280;29709;52.396;16.796;2023-11-19T16:51:20;100584.42;;;6.15;92.89
44044;BME280;29709;52.396;16.796;2023-11-19T16:54:33;100581.12;;;6.21;91.71
44044;BME280;29709;52.396;16.796;2023-11-19T16:57:47;100577.69;;;6.28;91.36
44044;BME280;29709;52.396;16.796;2023-11-19T17:01:02;100584.14;;;6.37;92.67
44044;BME280;29709;52.396;16.796;2023-11-19T17:04:18;100579.63;;;6.46;91.82
44044;BME280;29709;52.396;16.796;2023-11-19T17:07:32;100581.33;;;6.56;91.86
44044;BME280;29709;52.396;16.796;2023-11-19T17:10:51;100584.19;;;6.64;93.61
44044;BME280;29709;52.396;16.796;2023-11-19T17:14:06;100586.74;;;6.76;91.97
44044;BME280;29709;52.396;16.796;2023-11-19T17:17:20;100581.55;;;6.82;93.99
44044;BME280;29709;52.396;16.796;2023-11-19T17:20:34;100584.95;;;6.94;92.30
44044;BME280;29709;52.396;16.796;2023-11-19T17:23:52;100588.66;;;7.03;92.85
44044;BME280;29709;52.396;16.796;2023-11-19T17:27:06;100594.39;;;7.09;93.05
44044;BME280;29709;52.396;16.796;2023-11-19T17:30:19;100593.61;;;7.17;92.86
44044;BME280;29709;52.396;16.796;2023-11-19T17:33:33;100585.69;;;7.23;93.97
44044;BME280;29709;52.396;16.796;2023-11-19T17:36:46;100589.37;;;7.32;93.67
44044;BME280;29709;52.396;16.796;2023-11-19T17:39:59;100594.22;;;7.38;93.52
44044;BME280;29709;52.396;16.796;2023-11-19T17:43:13;100595.81;;;7.41;93.36